createdAt,value
2022-10-23T00:01:13.159Z,10.31
2022-10-23T00:03:42.444Z,10.29
2022-10-23T00:06:11.304Z,10.24
2022-10-23T00:08:39.648Z,10.20
2022-10-23T00:11:09.193Z,10.18
2022-10-23T00:13:37.516Z,10.17
2022-10-23T00:16:05.770Z,10.16
2022-10-23T00:18:34.500Z,10.10
2022-10-23T00:21:04.087Z,10.05
2022-10-23T00:23:32.109Z,10.08
2022-10-23T00:26:00.317Z,10.05
2022-10-23T00:28:28.360Z,10.03
2022-10-23T00:30:56.363Z,9.99
2022-10-23T00:33:24.357Z,9.94
2022-10-23T00:35:52.243Z,9.92
2022-10-23T00:38:21.670Z,9.94
2022-10-23T00:43:25.955Z,9.90
2022-10-23T00:45:54.137Z,9.90
2022-10-23T00:48:22.263Z,9.90
2022-10-23T00:50:51.207Z,9.87
2022-10-23T00:53:22.155Z,9.88
2022-10-23T00:55:54.874Z,9.82
2022-10-23T00:58:23.018Z,9.84
2022-10-23T01:00:53.103Z,9.80
2022-10-23T01:03:24.413Z,9.80
2022-10-23T01:05:59.792Z,9.74
2022-10-23T01:08:35.863Z,9.77
2022-10-23T01:11:11.457Z,9.74
2022-10-23T01:13:45.703Z,9.73
2022-10-23T01:16:20.002Z,9.70
2022-10-23T01:18:56.924Z,9.69
2022-10-23T01:21:32.312Z,9.69
2022-10-23T01:24:11.612Z,9.67
2022-10-23T01:26:56.606Z,9.65
2022-10-23T01:29:33.028Z,9.68
2022-10-23T01:32:10.955Z,9.65
2022-10-23T01:34:53.901Z,9.70
2022-10-23T01:37:30.303Z,9.68
2022-10-23T01:40:05.551Z,9.64
2022-10-23T01:42:40.718Z,9.63
2022-10-23T01:45:16.461Z,9.62
2022-10-23T01:47:46.228Z,9.58
2022-10-23T01:50:18.379Z,9.57
2022-10-23T01:52:48.951Z,9.56
2022-10-23T01:55:18.716Z,9.60
2022-10-23T01:57:48.066Z,9.63
2022-10-23T02:00:20.193Z,9.56
2022-10-23T02:02:55.726Z,9.53
2022-10-23T02:05:31.251Z,9.50
2022-10-23T02:08:01.549Z,9.51
2022-10-23T02:10:34.447Z,9.50
2022-10-23T02:13:06.621Z,9.48
2022-10-23T02:15:40.697Z,9.45
2022-10-23T02:18:16.551Z,9.46
2022-10-23T02:20:48.538Z,9.43
2022-10-23T02:23:22.336Z,9.39
2022-10-23T02:25:56.456Z,9.41
2022-10-23T02:28:28.927Z,9.42
2022-10-23T02:31:05.084Z,9.42
2022-10-23T02:33:35.736Z,9.43
2022-10-23T02:36:03.824Z,9.41
2022-10-23T02:38:35.292Z,9.39
2022-10-23T02:41:16.859Z,9.42
2022-10-23T02:43:54.959Z,9.39
2022-10-23T02:46:28.888Z,9.37
2022-10-23T02:49:09.757Z,9.39
2022-10-23T02:51:46.476Z,9.37
2022-10-23T02:54:21.594Z,9.34
2022-10-23T02:56:59.861Z,9.38
2022-10-23T02:59:42.591Z,9.38
2022-10-23T03:02:22.549Z,9.40
2022-10-23T03:04:52.362Z,9.36
2022-10-23T03:07:22.070Z,9.32
2022-10-23T03:09:50.018Z,9.35
2022-10-23T03:12:17.958Z,9.32
2022-10-23T03:14:45.891Z,9.31
2022-10-23T03:17:15.355Z,9.29
2022-10-23T03:19:47.454Z,9.29
2022-10-23T03:22:15.393Z,9.32
2022-10-23T03:24:43.508Z,9.33
2022-10-23T03:27:12.144Z,9.36
2022-10-23T03:29:40.102Z,9.36
2022-10-23T03:32:08.176Z,9.35
2022-10-23T03:34:37.454Z,9.37
2022-10-23T03:37:05.972Z,9.35
2022-10-23T03:39:33.819Z,9.35
2022-10-23T03:42:02.143Z,9.36
2022-10-23T03:44:31.422Z,9.38
2022-10-23T03:47:00.635Z,9.43
2022-10-23T03:49:28.623Z,9.46
2022-10-23T03:52:04.437Z,9.47
2022-10-23T03:54:33.838Z,9.49
2022-10-23T03:57:02.285Z,9.44
2022-10-23T03:59:30.708Z,9.47
2022-10-23T04:02:00.254Z,9.46
2022-10-23T04:04:28.510Z,9.46
2022-10-23T04:06:56.848Z,9.43
2022-10-23T04:09:26.401Z,9.43
2022-10-23T04:11:56.412Z,9.39
2022-10-23T04:14:28.584Z,9.43
2022-10-23T04:16:56.843Z,9.43
2022-10-23T04:19:25.169Z,9.41
2022-10-23T04:21:57.159Z,9.42
2022-10-23T04:24:27.425Z,9.44
2022-10-23T04:26:55.351Z,9.46
2022-10-23T04:29:24.585Z,9.48
2022-10-23T04:31:52.748Z,9.50
2022-10-23T04:34:20.779Z,9.51
2022-10-23T04:36:48.684Z,9.56
2022-10-23T04:39:16.616Z,9.58
2022-10-23T04:41:45.942Z,9.63
2022-10-23T04:44:13.839Z,9.62
2022-10-23T04:46:41.945Z,9.65
2022-10-23T04:49:10.964Z,9.68
2022-10-23T04:51:57.347Z,9.67
2022-10-23T04:54:51.522Z,9.69
2022-10-23T04:57:34.038Z,9.70
2022-10-23T05:00:07.214Z,9.71
2022-10-23T05:02:42.551Z,9.72
2022-10-23T05:05:11.705Z,9.70
2022-10-23T05:08:08.941Z,9.69
2022-10-23T05:10:59.182Z,9.71
2022-10-23T05:13:28.721Z,9.68
2022-10-23T05:15:59.840Z,9.69
2022-10-23T05:18:31.923Z,9.68
2022-10-23T05:21:04.009Z,9.67
2022-10-23T05:23:37.574Z,9.66
2022-10-23T05:26:06.089Z,9.64
2022-10-23T05:28:35.503Z,9.69
2022-10-23T05:31:06.203Z,9.68
2022-10-23T05:33:37.497Z,9.68
2022-10-23T05:36:07.242Z,9.68
2022-10-23T05:38:36.690Z,9.71
2022-10-23T05:41:12.819Z,9.73
2022-10-23T05:43:42.068Z,9.75
2022-10-23T05:46:29.050Z,9.74
2022-10-23T05:49:12.765Z,9.76
2022-10-23T05:52:15.818Z,9.71
2022-10-23T05:55:02.395Z,9.68
2022-10-23T05:57:46.008Z,9.69
2022-10-23T06:00:18.761Z,9.70
2022-10-23T06:02:54.930Z,9.69
2022-10-23T06:05:35.075Z,9.70
2022-10-23T06:08:17.342Z,9.69
2022-10-23T06:10:46.010Z,9.67
2022-10-23T06:13:13.968Z,9.78
2022-10-23T06:15:43.798Z,9.73
2022-10-23T06:18:23.307Z,9.76
2022-10-23T06:21:01.567Z,9.75
2022-10-23T06:23:31.612Z,9.70
2022-10-23T06:26:02.440Z,9.70
2022-10-23T06:28:38.274Z,9.71
2022-10-23T06:31:08.809Z,9.74
2022-10-23T06:33:36.979Z,9.74
2022-10-23T06:36:08.271Z,9.73
2022-10-23T06:38:40.316Z,9.76
2022-10-23T06:41:14.838Z,9.81
2022-10-23T06:43:44.648Z,9.84
2022-10-23T06:46:37.392Z,9.87
2022-10-23T06:49:34.491Z,9.89
2022-10-23T06:52:03.423Z,9.89
2022-10-23T06:54:32.164Z,9.93
2022-10-23T06:57:17.981Z,9.99
2022-10-23T06:59:47.905Z,10.03
2022-10-23T07:02:18.263Z,10.07
2022-10-23T07:04:46.208Z,10.12
2022-10-23T07:07:18.598Z,10.17
2022-10-23T07:09:49.734Z,10.22
2022-10-23T07:12:38.705Z,10.24
2022-10-23T07:15:25.032Z,10.33
2022-10-23T07:17:54.788Z,10.38
2022-10-23T07:20:24.176Z,10.43
2022-10-23T07:22:53.261Z,10.52
2022-10-23T07:25:28.302Z,10.58
2022-10-23T07:27:56.613Z,10.64
2022-10-23T07:30:26.661Z,10.69
2022-10-23T07:33:00.248Z,10.75
2022-10-23T07:35:56.631Z,10.79
2022-10-23T07:38:29.159Z,10.84
2022-10-23T07:40:59.255Z,10.89
2022-10-23T07:43:28.092Z,10.96
2022-10-23T07:45:56.472Z,11.00
2022-10-23T07:48:31.365Z,11.06
2022-10-23T07:51:01.752Z,11.10
2022-10-23T07:53:31.019Z,11.16
2022-10-23T07:56:13.944Z,11.23
2022-10-23T07:59:08.089Z,11.31
2022-10-23T08:01:39.066Z,11.38
2022-10-23T08:04:08.546Z,11.45
2022-10-23T08:06:42.149Z,11.54
2022-10-23T08:09:10.670Z,11.60
2022-10-23T08:11:41.294Z,11.66
2022-10-23T08:14:11.431Z,11.77
2022-10-23T08:16:40.764Z,11.80
2022-10-23T08:19:19.092Z,11.88
2022-10-23T08:21:48.805Z,11.95
2022-10-23T08:24:17.923Z,12.00
2022-10-23T08:26:50.979Z,12.05
2022-10-23T08:29:22.729Z,12.10
2022-10-23T08:31:53.634Z,12.15
2022-10-23T08:34:49.089Z,12.19
2022-10-23T08:37:17.780Z,12.24
2022-10-23T08:39:48.096Z,12.29
2022-10-23T08:42:25.898Z,12.33
2022-10-23T08:45:07.039Z,12.37
2022-10-23T08:47:43.295Z,12.40
2022-10-23T08:50:35.609Z,12.47
2022-10-23T08:53:10.376Z,12.57
2022-10-23T08:55:42.618Z,12.60
2022-10-23T08:58:16.458Z,12.66
2022-10-23T09:00:45.654Z,12.71
2022-10-23T09:03:14.603Z,12.81
2022-10-23T09:05:56.285Z,12.88
2022-10-23T09:08:36.852Z,12.92
2022-10-23T09:11:12.612Z,12.99
2022-10-23T09:14:21.904Z,13.04
2022-10-23T09:17:01.299Z,13.14
2022-10-23T09:19:30.458Z,13.22
2022-10-23T09:22:00.530Z,13.27
2022-10-23T09:24:31.705Z,13.32
2022-10-23T09:27:01.513Z,13.42
2022-10-23T09:29:32.980Z,13.49
2022-10-23T09:32:04.008Z,13.51
2022-10-23T09:34:35.451Z,13.61
2022-10-23T09:37:23.278Z,13.67
2022-10-23T09:40:03.823Z,13.78
2022-10-23T09:42:36.095Z,13.84
2022-10-23T09:45:21.079Z,13.87
2022-10-23T09:47:51.123Z,13.98
2022-10-23T09:50:22.006Z,14.03
2022-10-23T09:52:56.396Z,14.08
2022-10-23T09:55:26.951Z,14.14
2022-10-23T09:57:56.322Z,14.22
2022-10-23T10:00:26.448Z,14.33
2022-10-23T10:03:00.691Z,14.36
2022-10-23T10:06:00.624Z,14.50
2022-10-23T10:08:42.195Z,14.53
2022-10-23T10:11:17.524Z,14.62
2022-10-23T10:14:04.283Z,14.67
2022-10-23T10:16:43.874Z,14.72
2022-10-23T10:19:20.194Z,14.79
2022-10-23T10:21:57.543Z,14.86
2022-10-23T10:24:33.846Z,14.97
2022-10-23T10:27:11.936Z,15.05
2022-10-23T10:29:50.779Z,15.17
2022-10-23T10:32:32.831Z,15.20
2022-10-23T10:35:13.242Z,15.32
2022-10-23T10:37:58.320Z,15.40
2022-10-23T10:40:33.172Z,15.41
2022-10-23T10:43:24.499Z,15.46
2022-10-23T10:46:01.139Z,15.57
2022-10-23T10:48:49.974Z,15.59
2022-10-23T10:51:26.019Z,15.63
2022-10-23T10:54:11.490Z,15.67
2022-10-23T10:56:43.481Z,15.76
2022-10-23T10:59:18.107Z,15.80
2022-10-23T11:01:52.310Z,15.86
2022-10-23T11:04:32.681Z,15.94
2022-10-23T11:07:06.714Z,15.97
2022-10-23T11:09:34.718Z,16.02
2022-10-23T11:12:04.571Z,16.06
2022-10-23T11:14:35.262Z,16.13
2022-10-23T11:17:10.071Z,16.15
2022-10-23T11:19:44.927Z,16.16
2022-10-23T11:22:22.915Z,16.18
2022-10-23T11:25:36.290Z,16.24
2022-10-23T11:28:22.730Z,16.34
2022-10-23T11:31:10.909Z,16.38
2022-10-23T11:33:59.152Z,16.44
2022-10-23T11:36:43.214Z,16.47
2022-10-23T11:39:20.644Z,16.52
2022-10-23T11:41:53.954Z,16.56
2022-10-23T11:44:40.485Z,16.57
2022-10-23T11:47:37.993Z,16.61
2022-10-23T11:50:27.628Z,16.68
2022-10-23T11:53:15.882Z,16.70
2022-10-23T11:56:06.692Z,16.74
2022-10-23T11:58:53.571Z,16.78
2022-10-23T12:01:34.944Z,16.77
2022-10-23T12:04:09.795Z,16.79
2022-10-23T12:06:41.703Z,16.86
2022-10-23T12:09:25.654Z,16.86
2022-10-23T12:12:05.615Z,16.89
2022-10-23T12:14:38.522Z,16.92
2022-10-23T12:17:31.574Z,16.98
2022-10-23T12:20:15.672Z,17.03
2022-10-23T12:22:49.307Z,17.05
2022-10-23T12:25:20.918Z,17.13
2022-10-23T12:27:54.521Z,17.19
2022-10-23T12:30:24.674Z,17.14
2022-10-23T12:33:09.160Z,17.22
2022-10-23T12:35:59.423Z,17.23
2022-10-23T12:38:33.865Z,17.24
2022-10-23T12:41:12.026Z,17.23
2022-10-23T12:43:42.145Z,17.35
2022-10-23T12:46:27.739Z,17.38
2022-10-23T12:48:58.025Z,17.44
2022-10-23T12:51:28.059Z,17.50
2022-10-23T12:53:56.611Z,17.48
2022-10-23T12:56:26.073Z,17.53
2022-10-23T12:58:57.071Z,17.48
2022-10-23T13:01:27.300Z,17.46
2022-10-23T13:04:03.492Z,17.49
2022-10-23T13:06:31.875Z,17.48
2022-10-23T13:09:00.171Z,17.50
2022-10-23T13:11:38.099Z,17.48
2022-10-23T13:14:13.076Z,17.43
2022-10-23T13:16:41.234Z,17.43
2022-10-23T13:19:24.322Z,17.46
2022-10-23T13:21:52.362Z,17.50
2022-10-23T13:24:21.815Z,17.51
2022-10-23T13:26:49.964Z,17.52
2022-10-23T13:29:21.701Z,17.54
2022-10-23T13:31:50.220Z,17.68
2022-10-23T13:34:27.671Z,17.74
2022-10-23T13:37:00.989Z,17.72
2022-10-23T13:39:31.362Z,17.70
2022-10-23T13:42:10.841Z,17.72
2022-10-23T13:44:39.168Z,17.75
2022-10-23T13:47:12.495Z,17.77
2022-10-23T13:49:41.812Z,17.80
2022-10-23T13:52:12.033Z,17.78
2022-10-23T13:54:40.008Z,17.82
2022-10-23T13:57:13.900Z,17.80
2022-10-23T13:59:41.900Z,17.74
2022-10-23T14:02:22.313Z,17.75
2022-10-23T14:04:52.412Z,17.74
2022-10-23T14:07:20.500Z,17.68
2022-10-23T14:09:50.564Z,17.68
2022-10-23T14:12:18.769Z,17.67
2022-10-23T14:14:51.104Z,17.68
2022-10-23T14:17:19.076Z,17.63
2022-10-23T14:19:47.112Z,17.65
2022-10-23T14:22:16.572Z,17.64
2022-10-23T14:24:44.477Z,17.62
2022-10-23T14:27:12.531Z,17.58
2022-10-23T14:29:41.798Z,17.58
2022-10-23T14:32:09.738Z,17.54
2022-10-23T14:34:42.013Z,17.52
2022-10-23T14:37:09.931Z,17.51
2022-10-23T14:39:39.226Z,17.48
2022-10-23T14:42:07.287Z,17.46
2022-10-23T14:44:35.181Z,17.43
2022-10-23T14:47:03.226Z,17.41
2022-10-23T14:49:31.543Z,17.39
2022-10-23T14:51:59.582Z,17.38
2022-10-23T14:54:29.276Z,17.37
2022-10-23T14:56:58.735Z,17.35
2022-10-23T14:59:26.832Z,17.35
2022-10-23T15:01:54.801Z,17.36
2022-10-23T15:04:22.985Z,17.33
2022-10-23T15:06:50.978Z,17.38
2022-10-23T15:09:20.272Z,17.41
2022-10-23T15:11:48.354Z,17.50
2022-10-23T15:14:17.610Z,17.52
2022-10-23T15:16:45.508Z,17.51
2022-10-23T15:19:18.449Z,17.49
2022-10-23T15:21:47.200Z,17.49
2022-10-23T15:24:16.092Z,17.51
2022-10-23T15:26:44.504Z,17.54
2022-10-23T15:29:14.436Z,17.48
2022-10-23T15:31:50.445Z,17.47
2022-10-23T15:34:21.014Z,17.44
2022-10-23T15:36:49.591Z,17.37
2022-10-23T15:39:20.716Z,17.33
2022-10-23T15:41:52.308Z,17.31
2022-10-23T15:44:21.904Z,17.26
2022-10-23T15:46:51.937Z,17.21
2022-10-23T15:49:20.786Z,17.25
2022-10-23T15:51:48.601Z,17.29
2022-10-23T15:54:19.101Z,17.26
2022-10-23T15:56:48.430Z,17.24
2022-10-23T15:59:17.046Z,17.18
2022-10-23T16:01:45.107Z,17.15
2022-10-23T16:04:16.093Z,17.08
2022-10-23T16:06:44.126Z,17.03
2022-10-23T16:09:13.150Z,16.98
2022-10-23T16:11:42.813Z,16.98
2022-10-23T16:14:13.644Z,16.89
2022-10-23T16:16:44.167Z,16.83
2022-10-23T16:19:14.171Z,16.77
2022-10-23T16:21:42.988Z,16.70
2022-10-23T16:24:11.652Z,16.66
2022-10-23T16:26:41.386Z,16.59
2022-10-23T16:29:10.369Z,16.56
2022-10-23T16:31:38.357Z,16.55
2022-10-23T16:34:07.026Z,16.57
2022-10-23T16:36:39.048Z,16.58
2022-10-23T16:39:21.031Z,16.60
2022-10-23T16:42:07.974Z,16.57
2022-10-23T16:44:56.711Z,16.57
2022-10-23T16:47:24.690Z,16.55
2022-10-23T16:49:52.647Z,16.55
2022-10-23T16:52:22.023Z,16.57
2022-10-23T16:54:49.948Z,16.53
2022-10-23T16:57:17.939Z,16.48
2022-10-23T16:59:45.944Z,16.44
2022-10-23T17:02:14.770Z,16.41
2022-10-23T17:04:42.915Z,16.37
2022-10-23T17:07:13.118Z,16.36
2022-10-23T17:09:45.220Z,16.31
2022-10-23T17:12:13.479Z,16.26
2022-10-23T17:14:41.620Z,16.24
2022-10-23T17:17:10.039Z,16.21
2022-10-23T17:19:45.659Z,16.19
2022-10-23T17:22:14.880Z,16.15
2022-10-23T17:24:47.418Z,16.11
2022-10-23T17:27:18.166Z,16.11
2022-10-23T17:29:46.151Z,16.12
2022-10-23T17:32:14.190Z,16.12
2022-10-23T17:34:42.144Z,16.06
2022-10-23T17:37:10.188Z,16.06
2022-10-23T17:39:38.145Z,16.01
2022-10-23T17:42:07.478Z,16.01
2022-10-23T17:44:35.379Z,15.98
2022-10-23T17:47:03.399Z,15.99
2022-10-23T17:49:31.312Z,15.99
2022-10-23T17:51:59.369Z,15.99
2022-10-23T17:54:28.465Z,15.99
2022-10-23T17:56:56.567Z,15.96
2022-10-23T17:59:25.845Z,15.92
2022-10-23T18:01:54.872Z,15.90
2022-10-23T18:04:22.936Z,15.85
2022-10-23T18:06:53.527Z,15.83
2022-10-23T18:09:22.293Z,15.82
2022-10-23T18:11:50.754Z,15.83
2022-10-23T18:14:20.361Z,15.81
2022-10-23T18:16:50.785Z,15.77
2022-10-23T18:19:19.654Z,15.75
2022-10-23T18:21:48.107Z,15.75
2022-10-23T18:24:16.646Z,15.72
2022-10-23T18:26:46.051Z,15.66
2022-10-23T18:29:14.588Z,15.68
2022-10-23T18:31:43.828Z,15.68
2022-10-23T18:34:16.665Z,15.67
2022-10-23T18:36:44.576Z,15.64
2022-10-23T18:39:15.314Z,15.61
2022-10-23T18:41:45.302Z,15.58
2022-10-23T18:44:16.599Z,15.56
2022-10-23T18:46:44.547Z,15.58
2022-10-23T18:49:14.220Z,15.58
2022-10-23T18:51:42.428Z,15.56
2022-10-23T18:54:16.209Z,15.54
2022-10-23T18:56:45.001Z,15.52
2022-10-23T18:59:16.937Z,15.49
2022-10-23T19:01:45.333Z,15.52
2022-10-23T19:04:17.611Z,15.49
2022-10-23T19:06:46.124Z,15.50
2022-10-23T19:09:15.159Z,15.48
2022-10-23T19:11:43.994Z,15.50
2022-10-23T19:14:12.303Z,15.50
2022-10-23T19:16:44.423Z,15.48
2022-10-23T19:19:19.711Z,15.48
2022-10-23T19:21:48.885Z,15.47
2022-10-23T19:24:20.977Z,15.49
2022-10-23T19:26:49.454Z,15.49
2022-10-23T19:29:20.297Z,15.48
2022-10-23T19:31:49.871Z,15.48
2022-10-23T19:34:20.419Z,15.50
2022-10-23T19:36:48.600Z,15.52
2022-10-23T19:39:17.298Z,15.51
2022-10-23T19:41:45.291Z,15.49
2022-10-23T19:44:14.926Z,15.49
2022-10-23T19:46:43.066Z,15.49
2022-10-23T19:49:11.653Z,15.50
2022-10-23T19:51:41.160Z,15.50
2022-10-23T19:54:10.574Z,15.50
2022-10-23T19:56:39.148Z,15.50
2022-10-23T19:59:07.096Z,15.54
2022-10-23T20:01:35.805Z,15.58
2022-10-23T20:04:03.945Z,15.64
2022-10-23T20:06:35.430Z,15.64
2022-10-23T20:09:07.995Z,15.67
2022-10-23T20:11:37.713Z,15.70
2022-10-23T20:14:06.152Z,15.75
2022-10-23T20:16:36.371Z,15.75
2022-10-23T20:19:07.276Z,15.77
2022-10-23T20:21:36.997Z,15.78
2022-10-23T20:24:07.112Z,15.89
2022-10-23T20:26:35.244Z,15.88
2022-10-23T20:29:03.140Z,15.92
2022-10-23T20:31:31.112Z,15.93
2022-10-23T20:33:58.977Z,15.98
2022-10-23T20:36:29.476Z,16.02
2022-10-23T20:38:58.799Z,16.00
2022-10-23T20:41:29.017Z,16.03
2022-10-23T20:43:57.446Z,16.06
2022-10-23T20:46:26.446Z,16.08
2022-10-23T20:48:54.798Z,16.04
2022-10-23T20:51:24.923Z,16.04
2022-10-23T20:53:55.307Z,16.05
2022-10-23T20:56:29.935Z,16.03
2022-10-23T20:59:00.256Z,16.10
2022-10-23T21:01:28.861Z,16.06
2022-10-23T21:03:58.133Z,16.10
2022-10-23T21:06:27.209Z,16.10
2022-10-23T21:08:56.622Z,16.12
2022-10-23T21:11:25.294Z,16.14
2022-10-23T21:13:55.889Z,16.14
2022-10-23T21:16:28.667Z,16.12
2022-10-23T21:18:57.252Z,16.11
2022-10-23T21:21:26.639Z,16.12
2022-10-23T21:23:56.897Z,16.11
2022-10-23T21:26:25.656Z,16.11
2022-10-23T21:29:16.945Z,16.11
2022-10-23T21:31:43.976Z,16.09
2022-10-23T21:37:10.848Z,16.13
2022-10-23T21:39:34.369Z,16.11
2022-10-23T21:42:02.335Z,16.11
2022-10-23T21:44:30.172Z,16.09
2022-10-23T21:46:59.458Z,16.11
2022-10-23T21:49:27.404Z,16.11
2022-10-23T21:51:55.775Z,16.14
2022-10-23T21:54:24.066Z,16.09
2022-10-23T21:56:54.842Z,16.06
2022-10-23T21:59:25.915Z,16.04
2022-10-23T22:01:55.911Z,16.05
2022-10-23T22:04:25.327Z,16.05
2022-10-23T22:06:53.869Z,16.00
2022-10-23T22:09:22.736Z,15.99
2022-10-23T22:11:51.498Z,16.01
2022-10-23T22:14:19.658Z,16.01
2022-10-23T22:16:48.379Z,15.98
2022-10-23T22:19:18.448Z,15.98
2022-10-23T22:21:48.976Z,16.01
2022-10-23T22:24:18.475Z,15.98
2022-10-23T22:26:49.263Z,15.98
2022-10-23T22:29:20.221Z,15.97
2022-10-23T22:31:49.814Z,15.99
2022-10-23T22:34:34.829Z,15.97
2022-10-23T22:37:10.930Z,15.95
2022-10-23T22:39:39.295Z,15.97
2022-10-23T22:42:07.196Z,15.98
2022-10-23T22:44:35.034Z,15.98
2022-10-23T22:47:02.929Z,15.92
2022-10-23T22:49:30.866Z,15.90
2022-10-23T22:51:58.795Z,15.92
2022-10-23T22:54:30.428Z,15.89
2022-10-23T22:56:58.574Z,15.87
2022-10-23T22:59:26.476Z,15.87
2022-10-23T23:01:54.386Z,15.85
2022-10-23T23:04:39.017Z,15.82
2022-10-23T23:07:08.202Z,15.79
2022-10-23T23:09:39.414Z,15.79
2022-10-23T23:12:08.606Z,15.78
2022-10-23T23:14:36.553Z,15.76
2022-10-23T23:17:04.711Z,15.77
2022-10-23T23:19:32.563Z,15.77
2022-10-23T23:22:01.009Z,15.72
2022-10-23T23:24:29.138Z,15.72
2022-10-23T23:26:58.441Z,15.69
2022-10-23T23:29:26.926Z,15.69
2022-10-23T23:31:54.940Z,15.68
2022-10-23T23:34:22.808Z,15.67
2022-10-23T23:36:50.852Z,15.65
2022-10-23T23:39:18.979Z,15.63
2022-10-23T23:41:46.816Z,15.60
2022-10-23T23:44:16.117Z,15.58
2022-10-23T23:46:44.006Z,15.55
2022-10-23T23:49:11.918Z,15.53
2022-10-23T23:51:39.787Z,15.51
2022-10-23T23:54:07.716Z,15.50
2022-10-23T23:56:36.213Z,15.48
2022-10-23T23:59:04.173Z,15.44
